sensor_id;sensor_type;location;lat;lon;timestamp;P1;durP1;ratioP1;P2;durP2;ratioP2
13943;SDS011;7044;53.286;8.534;2022-12-29T00:00:17;3.63;;;3.33;;
13943;SDS011;7044;53.286;8.534;2022-12-29T00:02:44;3.33;;;3.03;;
13943;SDS011;7044;53.286;8.534;2022-12-29T00:05:12;4.55;;;3.33;;
13943;SDS011;7044;53.286;8.534;2022-12-29T00:07:39;4.60;;;3.67;;
13943;SDS011;7044;53.286;8.534;2022-12-29T00:10:06;3.97;;;3.27;;
13943;SDS011;7044;53.286;8.534;2022-12-29T00:12:33;6.73;;;3.10;;
13943;SDS011;7044;53.286;8.534;2022-12-29T00:15:14;4.38;;;3.45;;
13943;SDS011;7044;53.286;8.534;2022-12-29T00:17:59;3.75;;;3.45;;
13943;SDS011;7044;53.286;8.534;2022-12-29T00:20:27;3.70;;;3.40;;
13943;SDS011;7044;53.286;8.534;2022-12-29T00:23:11;4.28;;;3.45;;
13943;SDS011;7044;53.286;8.534;2022-12-29T00:25:55;3.63;;;3.30;;
13943;SDS011;7044;53.286;8.534;2022-12-29T00:28:39;4.05;;;3.45;;
13943;SDS011;7044;53.286;8.534;2022-12-29T00:31:24;5.05;;;3.50;;
13943;SDS011;7044;53.286;8.534;2022-12-29T00:34:09;8.23;;;3.60;;
13943;SDS011;7044;53.286;8.534;2022-12-29T00:36:56;7.00;;;3.50;;
13943;SDS011;7044;53.286;8.534;2022-12-29T00:39:23;5.13;;;3.92;;
13943;SDS011;7044;53.286;8.534;2022-12-29T00:42:08;4.45;;;3.90;;
13943;SDS011;7044;53.286;8.534;2022-12-29T00:44:53;4.30;;;3.92;;
13943;SDS011;7044;53.286;8.534;2022-12-29T00:47:20;4.72;;;3.53;;
13943;SDS011;7044;53.286;8.534;2022-12-29T00:49:47;4.68;;;4.28;;
13943;SDS011;7044;53.286;8.534;2022-12-29T00:52:14;4.30;;;3.90;;
13943;SDS011;7044;53.286;8.534;2022-12-29T00:54:41;4.50;;;4.10;;
13943;SDS011;7044;53.286;8.534;2022-12-29T00:57:09;4.45;;;4.05;;
13943;SDS011;7044;53.286;8.534;2022-12-29T00:59:37;3.72;;;3.42;;
13943;SDS011;7044;53.286;8.534;2022-12-29T01:02:05;4.97;;;4.50;;
13943;SDS011;7044;53.286;8.534;2022-12-29T01:04:33;4.60;;;4.15;;
13943;SDS011;7044;53.286;8.534;2022-12-29T01:07:00;4.57;;;4.18;;
13943;SDS011;7044;53.286;8.534;2022-12-29T01:09:28;6.85;;;4.50;;
13943;SDS011;7044;53.286;8.534;2022-12-29T01:12:13;4.90;;;4.07;;
13943;SDS011;7044;53.286;8.534;2022-12-29T01:14:40;7.60;;;4.40;;
13943;SDS011;7044;53.286;8.534;2022-12-29T01:17:06;5.50;;;4.07;;
13943;SDS011;7044;53.286;8.534;2022-12-29T01:19:33;5.20;;;4.68;;
13943;SDS011;7044;53.286;8.534;2022-12-29T01:22:01;4.32;;;3.92;;
13943;SDS011;7044;53.286;8.534;2022-12-29T01:24:29;5.70;;;5.00;;
13943;SDS011;7044;53.286;8.534;2022-12-29T01:26:56;5.10;;;4.50;;
13943;SDS011;7044;53.286;8.534;2022-12-29T01:29:23;8.32;;;4.75;;
13943;SDS011;7044;53.286;8.534;2022-12-29T01:31:50;5.43;;;4.93;;
13943;SDS011;7044;53.286;8.534;2022-12-29T01:34:17;8.60;;;5.57;;
13943;SDS011;7044;53.286;8.534;2022-12-29T01:36:44;5.30;;;4.80;;
13943;SDS011;7044;53.286;8.534;2022-12-29T01:39:11;5.85;;;5.35;;
13943;SDS011;7044;53.286;8.534;2022-12-29T01:41:39;4.90;;;4.45;;
13943;SDS011;7044;53.286;8.534;2022-12-29T01:47:14;5.18;;;4.72;;
13943;SDS011;7044;53.286;8.534;2022-12-29T01:49:47;6.82;;;4.68;;
13943;SDS011;7044;53.286;8.534;2022-12-29T01:52:14;4.65;;;4.25;;
13943;SDS011;7044;53.286;8.534;2022-12-29T01:54:41;5.28;;;4.78;;
13943;SDS011;7044;53.286;8.534;2022-12-29T01:57:14;4.93;;;4.43;;
13943;SDS011;7044;53.286;8.534;2022-12-29T01:59:45;4.95;;;4.45;;
13943;SDS011;7044;53.286;8.534;2022-12-29T02:02:17;6.15;;;4.50;;
13943;SDS011;7044;53.286;8.534;2022-12-29T02:04:44;4.00;;;3.70;;
13943;SDS011;7044;53.286;8.534;2022-12-29T02:07:13;4.50;;;4.00;;
13943;SDS011;7044;53.286;8.534;2022-12-29T02:09:43;5.47;;;3.70;;
13943;SDS011;7044;53.286;8.534;2022-12-29T02:12:14;4.32;;;3.40;;
13943;SDS011;7044;53.286;8.534;2022-12-29T02:14:41;4.25;;;3.60;;
13943;SDS011;7044;53.286;8.534;2022-12-29T02:17:10;4.07;;;3.67;;
13943;SDS011;7044;53.286;8.534;2022-12-29T02:23:08;3.63;;;3.33;;
13943;SDS011;7044;53.286;8.534;2022-12-29T02:25:58;4.03;;;3.63;;
13943;SDS011;7044;53.286;8.534;2022-12-29T02:29:03;5.78;;;3.90;;
13943;SDS011;7044;53.286;8.534;2022-12-29T02:31:44;7.53;;;3.70;;
13943;SDS011;7044;53.286;8.534;2022-12-29T02:34:17;4.25;;;3.55;;
13943;SDS011;7044;53.286;8.534;2022-12-29T02:36:53;7.43;;;3.53;;
13943;SDS011;7044;53.286;8.534;2022-12-29T02:39:36;3.28;;;2.97;;
13943;SDS011;7044;53.286;8.534;2022-12-29T02:42:08;5.43;;;3.30;;
13943;SDS011;7044;53.286;8.534;2022-12-29T02:44:42;3.72;;;3.17;;
13943;SDS011;7044;53.286;8.534;2022-12-29T02:47:21;3.88;;;3.17;;
13943;SDS011;7044;53.286;8.534;2022-12-29T02:49:55;3.22;;;2.95;;
13943;SDS011;7044;53.286;8.534;2022-12-29T02:52:30;4.63;;;2.90;;
13943;SDS011;7044;53.286;8.534;2022-12-29T02:55:00;3.38;;;3.05;;
13943;SDS011;7044;53.286;8.534;2022-12-29T02:57:30;3.40;;;3.10;;
13943;SDS011;7044;53.286;8.534;2022-12-29T03:00:00;2.92;;;2.72;;
13943;SDS011;7044;53.286;8.534;2022-12-29T03:05:37;2.92;;;2.63;;
13943;SDS011;7044;53.286;8.534;2022-12-29T03:08:17;3.67;;;2.50;;
13943;SDS011;7044;53.286;8.534;2022-12-29T03:10:51;2.90;;;2.70;;
13943;SDS011;7044;53.286;8.534;2022-12-29T03:13:23;3.20;;;2.90;;
13943;SDS011;7044;53.286;8.534;2022-12-29T03:16:14;2.95;;;2.72;;
13943;SDS011;7044;53.286;8.534;2022-12-29T03:18:51;3.03;;;2.75;;
13943;SDS011;7044;53.286;8.534;2022-12-29T03:21:25;4.00;;;2.85;;
13943;SDS011;7044;53.286;8.534;2022-12-29T03:24:31;4.10;;;3.25;;
13943;SDS011;7044;53.286;8.534;2022-12-29T03:27:01;3.80;;;3.40;;
13943;SDS011;7044;53.286;8.534;2022-12-29T03:29:32;3.45;;;2.97;;
13943;SDS011;7044;53.286;8.534;2022-12-29T03:32:01;3.28;;;2.97;;
13943;SDS011;7044;53.286;8.534;2022-12-29T03:34:31;3.17;;;2.90;;
13943;SDS011;7044;53.286;8.534;2022-12-29T03:37:02;4.95;;;3.30;;
13943;SDS011;7044;53.286;8.534;2022-12-29T03:39:34;3.50;;;3.20;;
13943;SDS011;7044;53.286;8.534;2022-12-29T03:42:03;3.35;;;3.05;;
13943;SDS011;7044;53.286;8.534;2022-12-29T03:44:32;4.95;;;3.20;;
13943;SDS011;7044;53.286;8.534;2022-12-29T03:47:01;3.45;;;3.15;;
13943;SDS011;7044;53.286;8.534;2022-12-29T03:49:28;4.53;;;3.08;;
13943;SDS011;7044;53.286;8.534;2022-12-29T03:51:57;3.13;;;2.88;;
13943;SDS011;7044;53.286;8.534;2022-12-29T03:54:24;2.75;;;2.53;;
13943;SDS011;7044;53.286;8.534;2022-12-29T03:56:50;3.13;;;2.83;;
13943;SDS011;7044;53.286;8.534;2022-12-29T03:59:17;3.20;;;2.15;;
13943;SDS011;7044;53.286;8.534;2022-12-29T04:01:44;3.15;;;2.65;;
13943;SDS011;7044;53.286;8.534;2022-12-29T04:04:11;2.60;;;2.20;;
13943;SDS011;7044;53.286;8.534;2022-12-29T04:06:38;2.92;;;2.00;;
13943;SDS011;7044;53.286;8.534;2022-12-29T04:09:07;2.55;;;2.13;;
13943;SDS011;7044;53.286;8.534;2022-12-29T04:11:35;2.50;;;2.30;;
13943;SDS011;7044;53.286;8.534;2022-12-29T04:14:02;2.60;;;2.10;;
13943;SDS011;7044;53.286;8.534;2022-12-29T04:16:29;2.20;;;1.98;;
13943;SDS011;7044;53.286;8.534;2022-12-29T04:18:56;2.72;;;2.15;;
13943;SDS011;7044;53.286;8.534;2022-12-29T04:21:22;2.20;;;2.00;;
13943;SDS011;7044;53.286;8.534;2022-12-29T04:23:49;4.78;;;2.20;;
13943;SDS011;7044;53.286;8.534;2022-12-29T04:26:17;2.45;;;2.25;;
13943;SDS011;7044;53.286;8.534;2022-12-29T04:28:44;2.53;;;2.33;;
13943;SDS011;7044;53.286;8.534;2022-12-29T04:31:11;2.38;;;2.17;;
13943;SDS011;7044;53.286;8.534;2022-12-29T04:33:38;3.00;;;2.80;;
13943;SDS011;7044;53.286;8.534;2022-12-29T04:36:05;2.88;;;2.67;;
13943;SDS011;7044;53.286;8.534;2022-12-29T04:38:32;2.10;;;2.00;;
13943;SDS011;7044;53.286;8.534;2022-12-29T04:40:59;2.38;;;2.17;;
13943;SDS011;7044;53.286;8.534;2022-12-29T04:43:28;5.68;;;2.40;;
13943;SDS011;7044;53.286;8.534;2022-12-29T04:45:55;2.80;;;2.40;;
13943;SDS011;7044;53.286;8.534;2022-12-29T04:48:22;1.70;;;1.60;;
13943;SDS011;7044;53.286;8.534;2022-12-29T04:50:49;2.92;;;2.00;;
13943;SDS011;7044;53.286;8.534;2022-12-29T04:53:16;2.05;;;1.85;;
13943;SDS011;7044;53.286;8.534;2022-12-29T04:55:44;2.30;;;1.83;;
13943;SDS011;7044;53.286;8.534;2022-12-29T04:58:14;2.03;;;1.83;;
13943;SDS011;7044;53.286;8.534;2022-12-29T05:00:42;2.13;;;1.92;;
13943;SDS011;7044;53.286;8.534;2022-12-29T05:03:09;1.83;;;1.67;;
13943;SDS011;7044;53.286;8.534;2022-12-29T05:05:36;2.70;;;1.58;;
13943;SDS011;7044;53.286;8.534;2022-12-29T05:08:03;1.80;;;1.70;;
13943;SDS011;7044;53.286;8.534;2022-12-29T05:10:30;1.80;;;1.52;;
13943;SDS011;7044;53.286;8.534;2022-12-29T05:12:57;1.50;;;1.40;;
13943;SDS011;7044;53.286;8.534;2022-12-29T05:15:24;1.83;;;1.25;;
13943;SDS011;7044;53.286;8.534;2022-12-29T05:17:53;1.50;;;1.20;;
13943;SDS011;7044;53.286;8.534;2022-12-29T05:20:19;2.47;;;1.10;;
13943;SDS011;7044;53.286;8.534;2022-12-29T05:22:46;1.48;;;1.05;;
13943;SDS011;7044;53.286;8.534;2022-12-29T05:25:13;2.30;;;1.17;;
13943;SDS011;7044;53.286;8.534;2022-12-29T05:27:40;3.00;;;1.38;;
13943;SDS011;7044;53.286;8.534;2022-12-29T05:30:08;0.85;;;0.80;;
13943;SDS011;7044;53.286;8.534;2022-12-29T05:32:35;1.08;;;0.98;;
13943;SDS011;7044;53.286;8.534;2022-12-29T05:35:04;1.98;;;1.00;;
13943;SDS011;7044;53.286;8.534;2022-12-29T05:37:31;1.23;;;1.08;;
13943;SDS011;7044;53.286;8.534;2022-12-29T05:39:58;0.95;;;0.85;;
13943;SDS011;7044;53.286;8.534;2022-12-29T05:42:25;1.48;;;0.75;;
13943;SDS011;7044;53.286;8.534;2022-12-29T05:44:52;0.80;;;0.65;;
13943;SDS011;7044;53.286;8.534;2022-12-29T05:47:19;2.45;;;1.08;;
13943;SDS011;7044;53.286;8.534;2022-12-29T05:49:45;1.63;;;1.20;;
13943;SDS011;7044;53.286;8.534;2022-12-29T05:52:14;0.70;;;0.70;;
13943;SDS011;7044;53.286;8.534;2022-12-29T05:54:40;0.88;;;0.88;;
13943;SDS011;7044;53.286;8.534;2022-12-29T05:57:07;1.70;;;0.85;;
13943;SDS011;7044;53.286;8.534;2022-12-29T05:59:34;1.50;;;1.02;;
13943;SDS011;7044;53.286;8.534;2022-12-29T06:02:01;2.47;;;0.80;;
13943;SDS011;7044;53.286;8.534;2022-12-29T06:04:28;2.10;;;0.93;;
13943;SDS011;7044;53.286;8.534;2022-12-29T06:06:55;2.17;;;0.75;;
13943;SDS011;7044;53.286;8.534;2022-12-29T06:09:23;1.80;;;0.80;;
13943;SDS011;7044;53.286;8.534;2022-12-29T06:11:50;0.75;;;0.75;;
13943;SDS011;7044;53.286;8.534;2022-12-29T06:14:17;1.33;;;0.80;;
13943;SDS011;7044;53.286;8.534;2022-12-29T06:16:44;0.85;;;0.80;;
13943;SDS011;7044;53.286;8.534;2022-12-29T06:19:11;1.02;;;0.90;;
13943;SDS011;7044;53.286;8.534;2022-12-29T06:21:37;0.80;;;0.80;;
13943;SDS011;7044;53.286;8.534;2022-12-29T06:24:05;1.00;;;0.70;;
13943;SDS011;7044;53.286;8.534;2022-12-29T06:26:33;0.60;;;0.60;;
13943;SDS011;7044;53.286;8.534;2022-12-29T06:29:00;0.80;;;0.80;;
13943;SDS011;7044;53.286;8.534;2022-12-29T06:31:27;2.55;;;1.00;;
13943;SDS011;7044;53.286;8.534;2022-12-29T06:33:54;0.80;;;0.80;;
13943;SDS011;7044;53.286;8.534;2022-12-29T06:36:21;1.30;;;0.75;;
13943;SDS011;7044;53.286;8.534;2022-12-29T06:38:48;2.25;;;0.82;;
13943;SDS011;7044;53.286;8.534;2022-12-29T06:41:17;3.22;;;1.00;;
13943;SDS011;7044;53.286;8.534;2022-12-29T06:43:45;1.48;;;0.90;;
13943;SDS011;7044;53.286;8.534;2022-12-29T06:46:12;1.70;;;1.10;;
13943;SDS011;7044;53.286;8.534;2022-12-29T06:48:39;1.33;;;1.00;;
13943;SDS011;7044;53.286;8.534;2022-12-29T06:51:07;3.05;;;0.80;;
13943;SDS011;7044;53.286;8.534;2022-12-29T06:53:34;3.53;;;1.10;;
13943;SDS011;7044;53.286;8.534;2022-12-29T06:56:01;2.95;;;0.93;;
13943;SDS011;7044;53.286;8.534;2022-12-29T06:58:27;3.13;;;1.00;;
13943;SDS011;7044;53.286;8.534;2022-12-29T07:00:56;8.23;;;0.70;;
13943;SDS011;7044;53.286;8.534;2022-12-29T07:03:23;2.75;;;0.75;;
13943;SDS011;7044;53.286;8.534;2022-12-29T07:05:50;1.25;;;0.90;;
13943;SDS011;7044;53.286;8.534;2022-12-29T07:08:17;0.88;;;0.80;;
13943;SDS011;7044;53.286;8.534;2022-12-29T07:10:44;4.97;;;1.48;;
13943;SDS011;7044;53.286;8.534;2022-12-29T07:13:11;3.22;;;1.13;;
13943;SDS011;7044;53.286;8.534;2022-12-29T07:15:38;1.15;;;0.90;;
13943;SDS011;7044;53.286;8.534;2022-12-29T07:18:06;2.33;;;0.93;;
13943;SDS011;7044;53.286;8.534;2022-12-29T07:20:33;4.32;;;1.25;;
13943;SDS011;7044;53.286;8.534;2022-12-29T07:23:00;3.67;;;1.15;;
13943;SDS011;7044;53.286;8.534;2022-12-29T07:25:26;1.20;;;1.10;;
13943;SDS011;7044;53.286;8.534;2022-12-29T07:27:54;1.45;;;1.00;;
13943;SDS011;7044;53.286;8.534;2022-12-29T07:30:21;4.88;;;1.35;;
13943;SDS011;7044;53.286;8.534;2022-12-29T07:32:48;4.53;;;1.27;;
13943;SDS011;7044;53.286;8.534;2022-12-29T07:35:16;2.08;;;0.90;;
13943;SDS011;7044;53.286;8.534;2022-12-29T07:37:43;1.33;;;0.77;;
13943;SDS011;7044;53.286;8.534;2022-12-29T07:40:10;1.10;;;0.57;;
13943;SDS011;7044;53.286;8.534;2022-12-29T07:42:37;4.25;;;1.00;;
13943;SDS011;7044;53.286;8.534;2022-12-29T07:45:05;1.95;;;0.77;;
13943;SDS011;7044;53.286;8.534;2022-12-29T07:47:32;6.93;;;1.38;;
13943;SDS011;7044;53.286;8.534;2022-12-29T07:49:59;3.55;;;1.05;;
13943;SDS011;7044;53.286;8.534;2022-12-29T07:52:27;3.53;;;1.00;;
13943;SDS011;7044;53.286;8.534;2022-12-29T07:54:54;1.58;;;1.00;;
13943;SDS011;7044;53.286;8.534;2022-12-29T07:57:21;3.72;;;1.33;;
13943;SDS011;7044;53.286;8.534;2022-12-29T07:59:48;1.67;;;1.52;;
13943;SDS011;7044;53.286;8.534;2022-12-29T08:02:15;7.95;;;1.27;;
13943;SDS011;7044;53.286;8.534;2022-12-29T08:04:42;3.50;;;1.15;;
13943;SDS011;7044;53.286;8.534;2022-12-29T08:07:08;3.67;;;0.95;;
13943;SDS011;7044;53.286;8.534;2022-12-29T08:09:37;1.05;;;0.88;;
13943;SDS011;7044;53.286;8.534;2022-12-29T08:12:03;0.95;;;0.80;;
13943;SDS011;7044;53.286;8.534;2022-12-29T08:14:30;4.15;;;1.25;;
13943;SDS011;7044;53.286;8.534;2022-12-29T08:16:57;5.32;;;1.10;;
13943;SDS011;7044;53.286;8.534;2022-12-29T08:19:24;3.25;;;0.88;;
13943;SDS011;7044;53.286;8.534;2022-12-29T08:21:52;5.45;;;1.15;;
13943;SDS011;7044;53.286;8.534;2022-12-29T08:24:19;3.47;;;1.27;;
13943;SDS011;7044;53.286;8.534;2022-12-29T08:26:47;4.63;;;1.40;;
13943;SDS011;7044;53.286;8.534;2022-12-29T08:29:14;6.43;;;1.25;;
13943;SDS011;7044;53.286;8.534;2022-12-29T08:31:41;2.95;;;1.58;;
13943;SDS011;7044;53.286;8.534;2022-12-29T08:34:08;3.38;;;1.15;;
13943;SDS011;7044;53.286;8.534;2022-12-29T08:36:35;1.73;;;1.00;;
13943;SDS011;7044;53.286;8.534;2022-12-29T08:39:02;1.92;;;1.20;;
13943;SDS011;7044;53.286;8.534;2022-12-29T08:41:29;3.78;;;1.10;;
13943;SDS011;7044;53.286;8.534;2022-12-29T08:43:57;2.10;;;1.23;;
13943;SDS011;7044;53.286;8.534;2022-12-29T08:46:24;2.22;;;0.93;;
13943;SDS011;7044;53.286;8.534;2022-12-29T08:48:51;4.63;;;1.05;;
13943;SDS011;7044;53.286;8.534;2022-12-29T08:51:18;2.83;;;0.90;;
13943;SDS011;7044;53.286;8.534;2022-12-29T08:53:45;4.00;;;1.30;;
13943;SDS011;7044;53.286;8.534;2022-12-29T08:56:12;6.13;;;1.55;;
13943;SDS011;7044;53.286;8.534;2022-12-29T08:58:39;10.63;;;1.73;;
13943;SDS011;7044;53.286;8.534;2022-12-29T09:01:08;4.85;;;1.05;;
13943;SDS011;7044;53.286;8.534;2022-12-29T09:03:35;2.58;;;1.65;;
13943;SDS011;7044;53.286;8.534;2022-12-29T09:06:02;5.38;;;1.40;;
13943;SDS011;7044;53.286;8.534;2022-12-29T09:08:29;4.15;;;1.30;;
13943;SDS011;7044;53.286;8.534;2022-12-29T09:11:04;5.82;;;1.13;;
13943;SDS011;7044;53.286;8.534;2022-12-29T09:13:32;4.30;;;1.13;;
13943;SDS011;7044;53.286;8.534;2022-12-29T09:16:00;4.55;;;1.58;;
13943;SDS011;7044;53.286;8.534;2022-12-29T09:18:28;5.65;;;1.45;;
13943;SDS011;7044;53.286;8.534;2022-12-29T09:20:56;5.22;;;1.17;;
13943;SDS011;7044;53.286;8.534;2022-12-29T09:23:24;4.28;;;1.00;;
13943;SDS011;7044;53.286;8.534;2022-12-29T09:25:51;2.97;;;1.10;;
13943;SDS011;7044;53.286;8.534;2022-12-29T09:28:18;2.88;;;1.20;;
13943;SDS011;7044;53.286;8.534;2022-12-29T09:30:45;2.03;;;1.00;;
13943;SDS011;7044;53.286;8.534;2022-12-29T09:33:12;6.13;;;1.08;;
13943;SDS011;7044;53.286;8.534;2022-12-29T09:35:42;4.78;;;1.02;;
13943;SDS011;7044;53.286;8.534;2022-12-29T09:38:09;2.80;;;1.30;;
13943;SDS011;7044;53.286;8.534;2022-12-29T09:40:37;4.97;;;1.05;;
13943;SDS011;7044;53.286;8.534;2022-12-29T09:43:10;2.45;;;1.00;;
13943;SDS011;7044;53.286;8.534;2022-12-29T09:45:55;2.55;;;0.98;;
13943;SDS011;7044;53.286;8.534;2022-12-29T09:48:30;4.88;;;1.23;;
13943;SDS011;7044;53.286;8.534;2022-12-29T09:51:03;4.47;;;1.30;;
13943;SDS011;7044;53.286;8.534;2022-12-29T09:53:37;6.03;;;1.10;;
13943;SDS011;7044;53.286;8.534;2022-12-29T09:56:07;9.40;;;1.75;;
13943;SDS011;7044;53.286;8.534;2022-12-29T09:58:41;5.93;;;1.13;;
13943;SDS011;7044;53.286;8.534;2022-12-29T10:01:17;3.38;;;1.00;;
13943;SDS011;7044;53.286;8.534;2022-12-29T10:03:54;4.78;;;1.40;;
13943;SDS011;7044;53.286;8.534;2022-12-29T10:06:25;4.53;;;1.30;;
13943;SDS011;7044;53.286;8.534;2022-12-29T10:08:57;9.00;;;1.40;;
13943;SDS011;7044;53.286;8.534;2022-12-29T10:11:33;4.30;;;1.10;;
13943;SDS011;7044;53.286;8.534;2022-12-29T10:14:21;4.63;;;1.05;;
13943;SDS011;7044;53.286;8.534;2022-12-29T10:17:00;3.08;;;1.05;;
13943;SDS011;7044;53.286;8.534;2022-12-29T10:19:46;4.10;;;1.23;;
13943;SDS011;7044;53.286;8.534;2022-12-29T10:22:24;4.60;;;1.10;;
13943;SDS011;7044;53.286;8.534;2022-12-29T10:24:59;8.43;;;1.20;;
13943;SDS011;7044;53.286;8.534;2022-12-29T10:27:30;3.22;;;1.00;;
13943;SDS011;7044;53.286;8.534;2022-12-29T10:29:59;5.32;;;1.35;;
13943;SDS011;7044;53.286;8.534;2022-12-29T10:32:30;6.65;;;0.93;;
13943;SDS011;7044;53.286;8.534;2022-12-29T10:35:03;3.80;;;1.10;;
13943;SDS011;7044;53.286;8.534;2022-12-29T10:37:38;2.88;;;1.13;;
13943;SDS011;7044;53.286;8.534;2022-12-29T10:40:14;5.07;;;1.20;;
13943;SDS011;7044;53.286;8.534;2022-12-29T10:42:50;6.07;;;0.90;;
13943;SDS011;7044;53.286;8.534;2022-12-29T10:45:19;2.65;;;0.93;;
13943;SDS011;7044;53.286;8.534;2022-12-29T10:47:52;7.10;;;1.25;;
13943;SDS011;7044;53.286;8.534;2022-12-29T10:50:24;2.25;;;0.75;;
13943;SDS011;7044;53.286;8.534;2022-12-29T10:52:53;5.78;;;1.58;;
13943;SDS011;7044;53.286;8.534;2022-12-29T10:55:23;4.63;;;1.08;;
13943;SDS011;7044;53.286;8.534;2022-12-29T10:57:53;3.08;;;1.08;;
13943;SDS011;7044;53.286;8.534;2022-12-29T11:00:23;6.55;;;1.40;;
13943;SDS011;7044;53.286;8.534;2022-12-29T11:02:54;2.78;;;1.30;;
13943;SDS011;7044;53.286;8.534;2022-12-29T11:05:39;4.03;;;0.90;;
13943;SDS011;7044;53.286;8.534;2022-12-29T11:08:13;4.35;;;1.23;;
13943;SDS011;7044;53.286;8.534;2022-12-29T11:10:43;5.95;;;1.63;;
13943;SDS011;7044;53.286;8.534;2022-12-29T11:13:12;2.55;;;0.90;;
13943;SDS011;7044;53.286;8.534;2022-12-29T11:15:41;4.18;;;1.38;;
13943;SDS011;7044;53.286;8.534;2022-12-29T11:18:20;2.05;;;0.77;;
13943;SDS011;7044;53.286;8.534;2022-12-29T11:20:49;5.63;;;1.13;;
13943;SDS011;7044;53.286;8.534;2022-12-29T11:23:30;2.92;;;0.93;;
13943;SDS011;7044;53.286;8.534;2022-12-29T11:26:05;6.07;;;1.30;;
13943;SDS011;7044;53.286;8.534;2022-12-29T11:28:43;3.72;;;1.00;;
13943;SDS011;7044;53.286;8.534;2022-12-29T11:31:15;4.13;;;1.25;;
13943;SDS011;7044;53.286;8.534;2022-12-29T11:33:43;2.80;;;1.17;;
13943;SDS011;7044;53.286;8.534;2022-12-29T11:36:11;3.53;;;1.10;;
13943;SDS011;7044;53.286;8.534;2022-12-29T11:38:45;5.50;;;1.40;;
13943;SDS011;7044;53.286;8.534;2022-12-29T11:41:18;5.97;;;0.95;;
13943;SDS011;7044;53.286;8.534;2022-12-29T11:43:48;1.90;;;0.88;;
13943;SDS011;7044;53.286;8.534;2022-12-29T11:46:16;2.85;;;1.10;;
13943;SDS011;7044;53.286;8.534;2022-12-29T11:48:45;5.90;;;1.20;;
13943;SDS011;7044;53.286;8.534;2022-12-29T11:51:13;3.13;;;1.40;;
13943;SDS011;7044;53.286;8.534;2022-12-29T11:53:50;3.15;;;1.00;;
13943;SDS011;7044;53.286;8.534;2022-12-29T11:56:20;5.13;;;1.38;;
13943;SDS011;7044;53.286;8.534;2022-12-29T11:58:58;3.08;;;1.02;;
13943;SDS011;7044;53.286;8.534;2022-12-29T12:02:08;6.35;;;1.42;;
13943;SDS011;7044;53.286;8.534;2022-12-29T12:04:54;6.18;;;1.27;;
13943;SDS011;7044;53.286;8.534;2022-12-29T12:07:29;2.45;;;1.00;;
13943;SDS011;7044;53.286;8.534;2022-12-29T12:10:06;5.97;;;1.40;;
13943;SDS011;7044;53.286;8.534;2022-12-29T12:12:43;4.53;;;1.17;;
13943;SDS011;7044;53.286;8.534;2022-12-29T12:15:16;4.50;;;1.40;;
13943;SDS011;7044;53.286;8.534;2022-12-29T12:17:49;5.57;;;1.17;;
13943;SDS011;7044;53.286;8.534;2022-12-29T12:20:20;7.10;;;1.58;;
13943;SDS011;7044;53.286;8.534;2022-12-29T12:22:51;5.53;;;1.17;;
13943;SDS011;7044;53.286;8.534;2022-12-29T12:25:29;3.92;;;1.52;;
13943;SDS011;7044;53.286;8.534;2022-12-29T12:28:02;4.32;;;1.27;;
13943;SDS011;7044;53.286;8.534;2022-12-29T12:30:38;4.47;;;1.27;;
13943;SDS011;7044;53.286;8.534;2022-12-29T12:33:15;5.53;;;1.20;;
13943;SDS011;7044;53.286;8.534;2022-12-29T12:35:51;9.27;;;1.92;;
13943;SDS011;7044;53.286;8.534;2022-12-29T12:38:32;1.20;;;0.85;;
13943;SDS011;7044;53.286;8.534;2022-12-29T12:41:10;2.35;;;0.75;;
13943;SDS011;7044;53.286;8.534;2022-12-29T12:43:42;4.28;;;1.50;;
13943;SDS011;7044;53.286;8.534;2022-12-29T12:49:21;4.55;;;1.30;;
13943;SDS011;7044;53.286;8.534;2022-12-29T12:52:02;3.60;;;1.08;;
13943;SDS011;7044;53.286;8.534;2022-12-29T12:54:39;4.45;;;1.30;;
13943;SDS011;7044;53.286;8.534;2022-12-29T12:57:22;3.65;;;1.10;;
13943;SDS011;7044;53.286;8.534;2022-12-29T13:00:00;2.33;;;0.80;;
13943;SDS011;7044;53.286;8.534;2022-12-29T13:02:40;3.50;;;0.75;;
13943;SDS011;7044;53.286;8.534;2022-12-29T13:05:25;5.13;;;1.08;;
13943;SDS011;7044;53.286;8.534;2022-12-29T13:08:08;2.72;;;1.15;;
13943;SDS011;7044;53.286;8.534;2022-12-29T13:10:58;4.80;;;0.80;;
13943;SDS011;7044;53.286;8.534;2022-12-29T13:13:49;5.28;;;1.58;;
13943;SDS011;7044;53.286;8.534;2022-12-29T13:16:26;4.78;;;1.08;;
13943;SDS011;7044;53.286;8.534;2022-12-29T13:19:02;4.55;;;0.88;;
13943;SDS011;7044;53.286;8.534;2022-12-29T13:21:37;3.67;;;1.10;;
13943;SDS011;7044;53.286;8.534;2022-12-29T13:24:20;1.90;;;1.10;;
13943;SDS011;7044;53.286;8.534;2022-12-29T13:26:53;4.78;;;1.17;;
13943;SDS011;7044;53.286;8.534;2022-12-29T13:29:29;7.60;;;3.42;;
13943;SDS011;7044;53.286;8.534;2022-12-29T13:32:02;3.83;;;1.23;;
13943;SDS011;7044;53.286;8.534;2022-12-29T13:34:42;4.70;;;0.80;;
13943;SDS011;7044;53.286;8.534;2022-12-29T13:37:18;3.10;;;1.03;;
13943;SDS011;7044;53.286;8.534;2022-12-29T13:39:49;3.30;;;0.80;;
13943;SDS011;7044;53.286;8.534;2022-12-29T13:42:20;3.60;;;1.17;;
13943;SDS011;7044;53.286;8.534;2022-12-29T13:44:53;4.32;;;1.13;;
13943;SDS011;7044;53.286;8.534;2022-12-29T13:47:25;6.28;;;1.02;;
13943;SDS011;7044;53.286;8.534;2022-12-29T13:49:57;6.72;;;1.20;;
13943;SDS011;7044;53.286;8.534;2022-12-29T13:52:28;2.78;;;1.10;;
13943;SDS011;7044;53.286;8.534;2022-12-29T13:55:01;2.80;;;1.45;;
13943;SDS011;7044;53.286;8.534;2022-12-29T13:57:45;5.57;;;1.40;;
13943;SDS011;7044;53.286;8.534;2022-12-29T14:00:19;6.20;;;2.22;;
13943;SDS011;7044;53.286;8.534;2022-12-29T14:02:53;8.13;;;1.90;;
13943;SDS011;7044;53.286;8.534;2022-12-29T14:05:37;5.57;;;1.40;;
13943;SDS011;7044;53.286;8.534;2022-12-29T14:08:04;7.67;;;1.30;;
13943;SDS011;7044;53.286;8.534;2022-12-29T14:10:45;4.50;;;1.50;;
13943;SDS011;7044;53.286;8.534;2022-12-29T14:13:14;5.07;;;1.50;;
13943;SDS011;7044;53.286;8.534;2022-12-29T14:15:44;9.20;;;1.70;;
13943;SDS011;7044;53.286;8.534;2022-12-29T14:18:17;3.53;;;1.40;;
13943;SDS011;7044;53.286;8.534;2022-12-29T14:20:47;7.60;;;1.83;;
13943;SDS011;7044;53.286;8.534;2022-12-29T14:23:26;5.15;;;1.23;;
13943;SDS011;7044;53.286;8.534;2022-12-29T14:25:57;5.93;;;1.20;;
13943;SDS011;7044;53.286;8.534;2022-12-29T14:28:26;4.60;;;1.17;;
13943;SDS011;7044;53.286;8.534;2022-12-29T14:30:56;4.20;;;1.15;;
13943;SDS011;7044;53.286;8.534;2022-12-29T14:33:26;4.13;;;1.52;;
13943;SDS011;7044;53.286;8.534;2022-12-29T14:35:54;6.60;;;1.67;;
13943;SDS011;7044;53.286;8.534;2022-12-29T14:38:23;7.57;;;1.63;;
13943;SDS011;7044;53.286;8.534;2022-12-29T14:40:53;4.33;;;1.50;;
13943;SDS011;7044;53.286;8.534;2022-12-29T14:44:14;6.00;;;1.80;;
13943;SDS011;7044;53.286;8.534;2022-12-29T14:46:45;3.67;;;1.20;;
13943;SDS011;7044;53.286;8.534;2022-12-29T14:49:16;2.17;;;1.10;;
13943;SDS011;7044;53.286;8.534;2022-12-29T14:51:46;4.85;;;1.52;;
13943;SDS011;7044;53.286;8.534;2022-12-29T14:57:13;9.53;;;1.77;;
13943;SDS011;7044;53.286;8.534;2022-12-29T14:59:55;6.27;;;1.53;;
13943;SDS011;7044;53.286;8.534;2022-12-29T15:02:28;6.07;;;1.90;;
13943;SDS011;7044;53.286;8.534;2022-12-29T15:05:03;7.13;;;1.40;;
13943;SDS011;7044;53.286;8.534;2022-12-29T15:07:32;6.55;;;1.42;;
13943;SDS011;7044;53.286;8.534;2022-12-29T15:10:04;17.10;;;7.47;;
13943;SDS011;7044;53.286;8.534;2022-12-29T15:12:38;14.33;;;4.67;;
13943;SDS011;7044;53.286;8.534;2022-12-29T15:15:18;10.43;;;2.70;;
13943;SDS011;7044;53.286;8.534;2022-12-29T15:17:47;6.33;;;2.63;;
13943;SDS011;7044;53.286;8.534;2022-12-29T15:20:16;6.87;;;2.43;;
13943;SDS011;7044;53.286;8.534;2022-12-29T15:22:48;4.53;;;2.25;;
13943;SDS011;7044;53.286;8.534;2022-12-29T15:25:19;5.43;;;2.20;;
13943;SDS011;7044;53.286;8.534;2022-12-29T15:27:48;6.30;;;2.67;;
13943;SDS011;7044;53.286;8.534;2022-12-29T15:30:18;10.55;;;2.15;;
13943;SDS011;7044;53.286;8.534;2022-12-29T15:32:46;5.85;;;3.47;;
13943;SDS011;7044;53.286;8.534;2022-12-29T15:35:24;7.60;;;3.17;;
13943;SDS011;7044;53.286;8.534;2022-12-29T15:37:56;14.75;;;3.40;;
13943;SDS011;7044;53.286;8.534;2022-12-29T15:40:26;7.13;;;2.43;;